Time;durP1;ratioP1;P1;durP2;ratioP2;P2;SDS_P1;SDS_P2;PMS_P1;PMS_P2;Temp;Humidity;BMP_temperature;BMP_pressure;BME280_temperature;BME280_humidity;BME280_pressure;Samples;Min_cycle;Max_cycle;Signal;HPM_P1;HPM_P2
2023/04/17 00:00:19;;;;;;;26.42;16.05;;;8.10;99.90;;;;;;5086152;28;20058;-73
2023/04/17 00:02:45;;;;;;;28.70;17.50;;;8.10;99.90;;;;;;5081068;28;20067;-74
2023/04/17 00:05:11;;;;;;;26.65;17.55;;;8.10;99.90;;;;;;5082225;28;20101;-74
2023/04/17 00:07:40;;;;;;;27.65;17.42;;;9.60;99.90;;;;;;5070263;28;20543;-74
2023/04/17 00:10:10;;;;;;;25.60;18.15;;;8.10;99.90;;;;;;5071091;28;20087;-74
2023/04/17 00:12:36;;;;;;;30.40;18.50;;;8.10;99.90;;;;;;5068198;28;20056;-73
2023/04/17 00:15:03;;;;;;;28.67;18.65;;;8.10;99.90;;;;;;5079287;28;20043;-73
2023/04/17 00:17:28;;;;;;;29.38;19.30;;;8.10;99.90;;;;;;5076577;28;20043;-72
2023/04/17 00:19:54;;;;;;;29.98;18.90;;;8.10;99.90;;;;;;5081504;28;20051;-73
2023/04/17 00:22:20;;;;;;;29.33;18.75;;;8.10;99.90;;;;;;5078703;28;20039;-72
2023/04/17 00:24:46;;;;;;;29.45;19.25;;;8.10;99.90;;;;;;5076520;28;20131;-72
2023/04/17 00:27:13;;;;;;;29.52;19.48;;;8.10;99.90;;;;;;5087048;28;20067;-72
2023/04/17 00:29:39;;;;;;;31.52;20.95;;;8.10;99.90;;;;;;5055610;28;20043;-71
2023/04/17 00:32:04;;;;;;;27.92;18.02;;;8.10;99.90;;;;;;5080717;28;20113;-71
2023/04/17 00:34:30;;;;;;;27.75;18.80;;;8.10;99.90;;;;;;5055781;28;22142;-72
2023/04/17 00:36:58;;;;;;;31.08;19.27;;;8.10;99.90;;;;;;5087141;28;20056;-71
2023/04/17 00:39:24;;;;;;;26.95;18.02;;;8.10;99.90;;;;;;5067777;28;20144;-70
2023/04/17 00:41:49;;;;;;;30.92;18.58;;;8.10;99.90;;;;;;5059288;28;20055;-73
2023/04/17 00:44:16;;;;;;;29.02;17.52;;;8.10;99.90;;;;;;5081347;28;20738;-72
2023/04/17 00:46:42;;;;;;;29.10;18.05;;;8.10;99.90;;;;;;5052366;28;20235;-73
2023/04/17 00:49:09;;;;;;;28.05;17.77;;;8.10;99.90;;;;;;5067235;28;20047;-74
2023/04/17 00:51:35;;;;;;;27.05;17.67;;;8.00;99.90;;;;;;5068974;28;20051;-72
2023/04/17 00:54:01;;;;;;;28.80;17.10;;;8.00;99.90;;;;;;5065142;28;20387;-73
2023/04/17 00:56:28;;;;;;;26.48;16.85;;;8.00;99.90;;;;;;5084825;28;20066;-72
2023/04/17 00:59:00;;;;;;;24.92;16.92;;;8.00;99.90;;;;;;5067426;28;20514;-73
2023/04/17 01:01:26;;;;;;;32.60;17.83;;;8.00;99.90;;;;;;5071264;28;20047;-73
2023/04/17 01:03:52;;;;;;;35.13;20.05;;;8.10;99.90;;;;;;5057851;28;20440;-74
2023/04/17 01:06:19;;;;;;;31.77;19.27;;;8.00;99.90;;;;;;5069679;28;20044;-72
2023/04/17 01:08:44;;;;;;;28.63;18.08;;;8.00;99.90;;;;;;5066570;28;20051;-73
2023/04/17 01:11:11;;;;;;;28.05;17.77;;;8.00;99.90;;;;;;5070927;28;20055;-74
2023/04/17 01:14:03;;;;;;;34.00;16.05;;;8.00;99.90;;;;;;5055007;28;20043;-75
2023/04/17 01:16:32;;;;;;;26.75;16.10;;;8.00;99.90;;;;;;5083611;28;20052;-71
2023/04/17 01:18:58;;;;;;;24.17;15.75;;;8.00;99.90;;;;;;5070707;28;20743;-72
2023/04/17 01:21:24;;;;;;;30.20;17.42;;;8.00;99.90;;;;;;5083295;28;20078;-73
2023/04/17 01:23:52;;;;;;;27.90;17.40;;;8.00;99.90;;;;;;5080662;28;20086;-73
2023/04/17 01:26:20;;;;;;;25.85;16.55;;;8.00;99.90;;;;;;5085826;28;20047;-71
2023/04/17 01:28:55;;;;;;;31.67;19.50;;;8.00;99.90;;;;;;5071416;28;20044;-72
2023/04/17 01:31:21;;;;;;;34.47;19.27;;;8.00;99.90;;;;;;5085491;28;20472;-72
2023/04/17 01:33:47;;;;;;;25.95;17.75;;;8.00;99.90;;;;;;5063322;28;20043;-72
2023/04/17 01:36:14;;;;;;;29.77;17.95;;;7.90;99.90;;;;;;5083784;28;20047;-72
2023/04/17 01:38:40;;;;;;;28.48;17.25;;;7.90;99.90;;;;;;5081828;28;20043;-72
2023/04/17 01:41:09;;;;;;;27.70;17.38;;;7.90;99.90;;;;;;5052978;28;20051;-73
2023/04/17 01:43:43;;;;;;;30.73;17.65;;;8.00;99.90;;;;;;5086734;27;20055;-72
2023/04/17 01:46:10;;;;;;;27.50;17.02;;;7.90;99.90;;;;;;5079391;28;20051;-73
2023/04/17 01:48:36;;;;;;;28.85;16.60;;;8.00;99.90;;;;;;5083257;28;20075;-72
2023/04/17 01:51:03;;;;;;;28.25;16.95;;;7.90;99.90;;;;;;5071219;28;20043;-72
2023/04/17 01:53:30;;;;;;;26.38;15.85;;;7.90;99.90;;;;;;5081896;28;20043;-72
2023/04/17 01:55:55;;;;;;;25.23;15.73;;;8.00;99.90;;;;;;5079016;27;20040;-72
2023/04/17 01:58:21;;;;;;;26.88;16.52;;;7.90;99.90;;;;;;5083616;28;20063;-73
2023/04/17 02:00:48;;;;;;;23.70;15.52;;;7.90;99.90;;;;;;5080592;28;20047;-72
2023/04/17 02:03:14;;;;;;;24.75;16.40;;;7.90;99.90;;;;;;5069345;28;20052;-72
2023/04/17 02:05:40;;;;;;;27.67;16.00;;;7.90;99.90;;;;;;5070826;28;20052;-74
2023/04/17 02:08:06;;;;;;;25.30;14.75;;;7.90;99.90;;;;;;5083673;28;20048;-74
2023/04/17 02:10:33;;;;;;;24.25;15.05;;;7.90;99.90;;;;;;5081455;28;20051;-71
2023/04/17 02:12:58;;;;;;;22.75;13.13;;;7.90;99.90;;;;;;5084588;28;20078;-74
2023/04/17 02:15:24;;;;;;;23.30;14.13;;;7.90;99.90;;;;;;5084893;28;20550;-75
2023/04/17 02:17:50;;;;;;;22.42;13.88;;;7.90;99.90;;;;;;5084579;28;20066;-75
2023/04/17 02:20:16;;;;;;;23.10;13.63;;;7.90;99.90;;;;;;5053682;28;20047;-74
2023/04/17 02:22:42;;;;;;;23.02;13.68;;;7.90;99.90;;;;;;5088092;28;20395;-75
2023/04/17 02:25:08;;;;;;;25.52;13.43;;;7.80;99.90;;;;;;5078527;28;20078;-73
2023/04/17 02:27:34;;;;;;;24.42;14.70;;;7.90;99.90;;;;;;5084096;28;20126;-73
2023/04/17 02:29:59;;;;;;;24.88;14.20;;;7.80;99.90;;;;;;5080998;28;20739;-71
2023/04/17 02:32:27;;;;;;;23.50;13.75;;;7.90;99.90;;;;;;5081677;28;20134;-74
2023/04/17 02:34:53;;;;;;;23.73;13.75;;;7.90;99.90;;;;;;5050924;28;20055;-74
2023/04/17 02:37:19;;;;;;;26.63;13.68;;;7.90;99.90;;;;;;5067857;28;20498;-74
2023/04/17 02:39:45;;;;;;;22.55;13.77;;;7.90;99.90;;;;;;5081098;28;20498;-74
2023/04/17 02:42:12;;;;;;;21.75;13.40;;;7.90;99.90;;;;;;5082506;28;20051;-74
2023/04/17 02:44:38;;;;;;;24.67;13.18;;;7.90;99.90;;;;;;5083046;28;20096;-74
2023/04/17 02:47:05;;;;;;;21.50;13.65;;;7.90;99.90;;;;;;5084068;27;20142;-75
2023/04/17 02:49:31;;;;;;;22.25;13.30;;;7.90;99.90;;;;;;5066269;28;20048;-72
2023/04/17 02:51:57;;;;;;;22.38;13.93;;;7.80;99.90;;;;;;5080140;27;20067;-72
2023/04/17 02:54:23;;;;;;;23.27;14.13;;;7.80;99.90;;;;;;5072399;28;20484;-72
2023/04/17 02:56:49;;;;;;;24.73;14.52;;;7.80;99.90;;;;;;5054433;28;20127;-74
2023/04/17 02:59:16;;;;;;;23.50;13.90;;;7.80;99.90;;;;;;5068582;28;20090;-73
2023/04/17 03:01:41;;;;;;;26.23;14.10;;;7.80;99.90;;;;;;5081463;28;20040;-73
2023/04/17 03:04:07;;;;;;;22.33;13.32;;;7.80;99.90;;;;;;5067303;28;20454;-74
2023/04/17 03:06:33;;;;;;;24.30;13.88;;;7.80;99.90;;;;;;5083302;28;20047;-76
2023/04/17 03:08:59;;;;;;;28.17;14.45;;;7.20;99.90;;;;;;5067806;28;20075;-74
2023/04/17 03:11:25;;;;;;;24.85;14.40;;;7.80;99.90;;;;;;5082952;28;20127;-74
2023/04/17 03:13:51;;;;;;;24.52;13.07;;;7.80;99.90;;;;;;5079046;28;20129;-74
2023/04/17 03:16:17;;;;;;;22.23;13.40;;;7.80;99.90;;;;;;5080516;28;20040;-74
2023/04/17 03:18:44;;;;;;;24.73;13.80;;;7.80;99.90;;;;;;5084601;27;20047;-71
2023/04/17 03:21:10;;;;;;;25.73;14.13;;;7.80;99.90;;;;;;5070958;28;20140;-74
2023/04/17 03:23:36;;;;;;;22.80;14.23;;;7.70;99.90;;;;;;5082813;28;20048;-75
2023/04/17 03:26:02;;;;;;;25.05;13.65;;;7.70;99.90;;;;;;5081463;28;20058;-73
2023/04/17 03:28:28;;;;;;;23.38;13.77;;;7.70;99.90;;;;;;5080061;27;20051;-71
2023/04/17 03:30:56;;;;;;;24.80;14.57;;;7.70;99.90;;;;;;5070737;28;20039;-70
2023/04/17 03:33:24;;;;;;;23.30;13.25;;;7.70;99.90;;;;;;5083595;28;20058;-70
2023/04/17 03:35:50;;;;;;;26.65;14.15;;;7.70;99.90;;;;;;5063050;28;20506;-69
2023/04/17 03:38:16;;;;;;;23.00;13.85;;;7.70;99.90;;;;;;5069967;28;20046;-70
2023/04/17 03:40:43;;;;;;;23.73;14.52;;;7.70;99.90;;;;;;5080383;28;20184;-71
2023/04/17 03:43:09;;;;;;;23.67;14.45;;;7.60;99.90;;;;;;5064043;28;20073;-72
2023/04/17 03:45:35;;;;;;;21.83;12.93;;;7.60;99.90;;;;;;5080808;28;21748;-72
2023/04/17 03:48:01;;;;;;;26.77;15.02;;;7.60;99.90;;;;;;5059494;28;20079;-72
2023/04/17 03:50:27;;;;;;;24.05;14.25;;;7.60;99.90;;;;;;5083287;28;20052;-73
2023/04/17 03:52:53;;;;;;;24.08;14.77;;;7.60;99.90;;;;;;5084871;28;20127;-71
2023/04/17 03:55:18;;;;;;;25.88;15.18;;;7.60;99.90;;;;;;5066158;28;20040;-71
2023/04/17 03:57:44;;;;;;;31.25;16.48;;;7.60;99.90;;;;;;5082804;28;20078;-73
2023/04/17 04:00:11;;;;;;;33.22;18.00;;;8.20;99.90;;;;;;5055432;28;20135;-72
2023/04/17 04:02:37;;;;;;;30.42;18.13;;;7.50;99.90;;;;;;5071483;28;20051;-73
2023/04/17 04:05:03;;;;;;;31.67;17.00;;;7.50;99.90;;;;;;5082747;28;20044;-74
2023/04/17 04:07:29;;;;;;;29.15;16.48;;;7.60;99.90;;;;;;5082514;28;20058;-73
2023/04/17 04:09:54;;;;;;;29.13;15.93;;;7.50;99.90;;;;;;5066216;28;20055;-72
2023/04/17 04:12:22;;;;;;;27.65;15.82;;;7.50;99.90;;;;;;5082072;28;20052;-72
2023/04/17 04:14:48;;;;;;;28.08;15.10;;;7.60;99.90;;;;;;5085111;28;20040;-73
2023/04/17 04:17:14;;;;;;;25.65;14.80;;;7.50;99.90;;;;;;5070480;28;20476;-75
2023/04/17 04:19:41;;;;;;;28.88;16.20;;;7.50;99.90;;;;;;5083824;28;20155;-75
2023/04/17 04:22:13;;;;;;;29.73;16.40;;;7.60;99.90;;;;;;5081551;27;20109;-73
2023/04/17 04:24:39;;;;;;;29.17;15.75;;;7.50;99.90;;;;;;5066990;28;20048;-73
2023/04/17 04:27:05;;;;;;;33.25;16.15;;;7.50;99.90;;;;;;5082062;27;20047;-75
2023/04/17 04:29:32;;;;;;;33.15;16.83;;;7.50;99.90;;;;;;5086541;28;20067;-75
2023/04/17 04:31:59;;;;;;;34.50;17.65;;;7.50;99.90;;;;;;5086433;28;20581;-73
2023/04/17 04:34:28;;;;;;;35.25;17.52;;;7.50;99.90;;;;;;5087600;28;20053;-73
2023/04/17 04:36:55;;;;;;;30.50;15.82;;;7.50;99.90;;;;;;5071862;28;20159;-74
2023/04/17 04:39:28;;;;;;;30.02;17.00;;;7.50;99.90;;;;;;5061104;28;20130;-75
2023/04/17 04:41:54;;;;;;;26.27;16.25;;;7.50;99.90;;;;;;5069506;28;20394;-74
2023/04/17 04:44:20;;;;;;;29.75;15.80;;;7.50;99.90;;;;;;5071156;28;20048;-72
2023/04/17 04:46:46;;;;;;;28.00;16.05;;;7.50;99.90;;;;;;5084062;28;20047;-76
2023/04/17 04:49:13;;;;;;;29.42;16.52;;;7.50;99.90;;;;;;5088423;28;20039;-75
2023/04/17 04:51:39;;;;;;;29.35;16.40;;;7.50;99.90;;;;;;5098770;27;20087;-75
2023/04/17 04:54:08;;;;;;;26.23;15.50;;;7.50;99.90;;;;;;5074963;28;20054;-74
2023/04/17 04:56:34;;;;;;;27.35;15.32;;;7.50;99.90;;;;;;5085293;28;20048;-73
2023/04/17 04:58:59;;;;;;;24.88;14.80;;;7.50;99.90;;;;;;5065753;28;20055;-74
2023/04/17 05:01:26;;;;;;;26.85;15.55;;;7.50;99.90;;;;;;5085866;28;20118;-74
2023/04/17 05:03:52;;;;;;;26.08;15.70;;;7.50;99.90;;;;;;5056520;28;20486;-75
2023/04/17 05:06:18;;;;;;;25.13;14.93;;;7.50;99.90;;;;;;5071338;28;20311;-75
2023/04/17 05:08:50;;;;;;;23.85;14.98;;;7.50;99.90;;;;;;5059689;28;20039;-74
2023/04/17 05:11:16;;;;;;;27.55;15.60;;;7.50;99.90;;;;;;5086398;28;20122;-74
2023/04/17 05:13:42;;;;;;;30.42;15.57;;;7.50;99.90;;;;;;5073390;28;20186;-74
2023/04/17 05:16:11;;;;;;;30.17;16.13;;;7.50;99.90;;;;;;5081247;28;20059;-73
2023/04/17 05:18:36;;;;;;;28.85;15.82;;;7.50;99.90;;;;;;5068263;28;20117;-73
2023/04/17 05:21:02;;;;;;;29.35;16.50;;;7.50;99.90;;;;;;5071521;28;20086;-74
2023/04/17 05:23:28;;;;;;;26.42;16.00;;;7.60;99.90;;;;;;5086582;28;20035;-80
2023/04/17 05:25:54;;;;;;;29.00;15.85;;;7.50;99.90;;;;;;5072710;28;20052;-76
2023/04/17 05:28:20;;;;;;;29.33;16.45;;;7.80;99.90;;;;;;5084112;28;20048;-79
2023/04/17 05:30:46;;;;;;;30.30;16.85;;;7.50;99.90;;;;;;5081346;28;20081;-78
2023/04/17 05:33:11;;;;;;;32.15;16.73;;;7.60;99.90;;;;;;5079899;28;20052;-79
2023/04/17 05:35:37;;;;;;;31.55;17.10;;;7.60;99.90;;;;;;5079820;27;20073;-79
2023/04/17 05:38:06;;;;;;;32.22;16.77;;;7.60;99.90;;;;;;5066283;27;20603;-76
2023/04/17 05:40:32;;;;;;;32.17;17.17;;;7.60;99.90;;;;;;5087050;28;20040;-76
2023/04/17 05:43:08;;;;;;;36.88;19.13;;;7.60;99.90;;;;;;5064212;28;20056;-77
2023/04/17 05:45:37;;;;;;;37.45;18.83;;;8.20;99.90;;;;;;5070255;28;20075;-77
2023/04/17 05:48:02;;;;;;;37.13;18.33;;;7.70;99.90;;;;;;5074508;28;20074;-77
2023/04/17 05:50:28;;;;;;;37.08;20.17;;;7.70;99.90;;;;;;5044257;28;20463;-76
2023/04/17 05:53:00;;;;;;;39.97;21.48;;;7.70;99.90;;;;;;5072901;28;20048;-79
2023/04/17 05:55:26;;;;;;;40.80;20.67;;;7.70;99.90;;;;;;5055343;28;20508;-79
2023/04/17 05:57:51;;;;;;;38.22;20.92;;;7.80;99.90;;;;;;5075994;28;20105;-77
2023/04/17 06:00:19;;;;;;;38.17;19.63;;;7.80;99.90;;;;;;5073834;28;20052;-77
2023/04/17 06:02:45;;;;;;;32.25;18.52;;;7.80;99.90;;;;;;5083327;27;20228;-77
2023/04/17 06:05:11;;;;;;;33.60;18.45;;;7.80;99.90;;;;;;5061508;28;20199;-78
2023/04/17 06:07:37;;;;;;;34.05;18.05;;;7.80;99.90;;;;;;5077857;28;20046;-77
2023/04/17 06:10:05;;;;;;;32.65;18.52;;;7.80;99.90;;;;;;5080618;28;20059;-79
2023/04/17 06:12:31;;;;;;;36.55;18.83;;;7.80;99.90;;;;;;5076879;28;20051;-78
2023/04/17 06:14:57;;;;;;;32.60;17.25;;;7.80;99.90;;;;;;5053653;28;20059;-77
2023/04/17 06:17:22;;;;;;;34.28;18.05;;;7.80;99.90;;;;;;5075351;28;20048;-77
2023/04/17 06:19:54;;;;;;;33.15;17.30;;;7.90;99.90;;;;;;5086703;28;20079;-76
2023/04/17 06:22:20;;;;;;;33.15;18.42;;;7.90;99.90;;;;;;5076108;27;20562;-76
2023/04/17 06:24:46;;;;;;;36.80;18.50;;;7.90;99.90;;;;;;5081159;28;20051;-75
2023/04/17 06:27:12;;;;;;;32.60;17.55;;;7.90;99.90;;;;;;5071750;28;20481;-76
2023/04/17 06:29:38;;;;;;;31.90;17.83;;;7.90;99.90;;;;;;5065412;28;20266;-74
2023/04/17 06:32:05;;;;;;;34.60;18.17;;;8.00;99.90;;;;;;5067500;28;20089;-76
2023/04/17 06:34:31;;;;;;;34.03;18.58;;;8.00;99.90;;;;;;5078947;28;20051;-76
2023/04/17 06:36:58;;;;;;;35.22;19.38;;;8.00;99.90;;;;;;5057722;28;20056;-77
2023/04/17 06:39:23;;;;;;;33.42;17.48;;;8.10;99.90;;;;;;5089823;28;20048;-76
2023/04/17 06:41:49;;;;;;;36.72;19.33;;;8.10;99.90;;;;;;5089656;28;20043;-77
2023/04/17 06:44:18;;;;;;;36.15;18.13;;;8.10;99.90;;;;;;5087301;28;20073;-76
2023/04/17 06:46:44;;;;;;;41.95;20.33;;;7.30;99.90;;;;;;5076331;28;20039;-77
2023/04/17 06:49:12;;;;;;;39.78;20.30;;;8.20;99.90;;;;;;5088471;28;20063;-77
2023/04/17 06:51:38;;;;;;;36.47;19.20;;;8.20;99.90;;;;;;5089971;28;20078;-76
2023/04/17 06:54:04;;;;;;;37.10;19.50;;;8.30;99.90;;;;;;5088004;28;20122;-76
2023/04/17 06:56:30;;;;;;;39.72;21.00;;;8.30;99.90;;;;;;5089240;28;20109;-75
2023/04/17 06:58:58;;;;;;;37.35;18.55;;;8.40;99.90;;;;;;5076933;28;21642;-76
2023/04/17 07:01:26;;;;;;;35.75;18.67;;;8.40;99.90;;;;;;5089495;28;20127;-76
2023/04/17 07:03:52;;;;;;;35.03;17.65;;;8.40;99.90;;;;;;5089272;28;20131;-75
2023/04/17 07:06:19;;;;;;;34.88;18.70;;;8.40;99.90;;;;;;5069780;28;20110;-75
2023/04/17 07:08:45;;;;;;;36.90;19.02;;;8.40;99.90;;;;;;5083424;28;20054;-75
2023/04/17 07:11:11;;;;;;;36.65;18.10;;;8.40;99.90;;;;;;5088191;28;20133;-75
2023/04/17 07:13:37;;;;;;;38.75;19.27;;;8.50;99.90;;;;;;5073195;28;20051;-74
2023/04/17 07:16:04;;;;;;;32.50;17.88;;;8.50;99.90;;;;;;5090790;28;20501;-75
2023/04/17 07:18:30;;;;;;;30.42;16.60;;;8.60;99.90;;;;;;5087337;28;20962;-75
2023/04/17 07:20:56;;;;;;;34.10;17.83;;;8.60;99.90;;;;;;5094559;28;20547;-76
2023/04/17 07:23:24;;;;;;;29.38;15.85;;;8.70;99.90;;;;;;5108097;27;20152;-76
2023/04/17 07:25:49;;;;;;;33.83;16.73;;;8.80;99.90;;;;;;5079275;28;20098;-76
2023/04/17 07:28:16;;;;;;;29.73;16.10;;;8.80;99.90;;;;;;5092513;28;20047;-78
2023/04/17 07:30:42;;;;;;;29.88;17.10;;;8.90;99.90;;;;;;5091646;28;20414;-77
2023/04/17 07:33:08;;;;;;;30.83;16.50;;;8.90;99.90;;;;;;5090180;28;20139;-76
2023/04/17 07:35:34;;;;;;;27.58;16.45;;;9.00;99.90;;;;;;5080477;28;20059;-76
2023/04/17 07:38:02;;;;;;;31.50;16.77;;;9.00;99.90;;;;;;5077130;28;20055;-77
2023/04/17 07:40:28;;;;;;;29.85;18.08;;;9.10;99.90;;;;;;5093171;28;20060;-76
2023/04/17 07:42:55;;;;;;;30.95;17.50;;;9.10;99.90;;;;;;5090933;28;20165;-76
2023/04/17 07:45:21;;;;;;;25.52;15.52;;;9.20;99.90;;;;;;5078705;28;20059;-77
2023/04/17 07:47:49;;;;;;;31.73;17.60;;;9.30;99.90;;;;;;5092523;28;20044;-76
2023/04/17 07:50:18;;;;;;;26.73;16.00;;;9.40;99.90;;;;;;5091943;28;20122;-76
2023/04/17 07:52:45;;;;;;;26.85;16.25;;;9.40;99.90;;;;;;5081873;28;20138;-76
2023/04/17 07:55:10;;;;;;;28.58;15.88;;;9.40;99.90;;;;;;5089677;28;20043;-77
2023/04/17 07:57:41;;;;;;;24.92;15.70;;;9.50;99.90;;;;;;5093095;28;20058;-75
2023/04/17 08:00:12;;;;;;;25.73;15.70;;;9.50;99.90;;;;;;5078924;28;20483;-77
2023/04/17 08:02:39;;;;;;;24.13;15.25;;;9.60;99.90;;;;;;5091819;28;20055;-75
2023/04/17 08:05:05;;;;;;;27.80;17.15;;;9.60;99.90;;;;;;5070561;28;20050;-77
2023/04/17 08:07:31;;;;;;;32.33;17.75;;;9.70;99.90;;;;;;5083881;28;20058;-76
2023/04/17 08:09:57;;;;;;;31.52;17.52;;;9.70;99.90;;;;;;5077591;28;20048;-77
2023/04/17 08:12:23;;;;;;;25.98;16.70;;;9.70;99.90;;;;;;5095521;28;20050;-76
2023/04/17 08:14:48;;;;;;;26.10;16.02;;;9.80;99.90;;;;;;5090611;28;20574;-75
2023/04/17 08:17:18;;;;;;;25.95;16.13;;;9.80;99.90;;;;;;5093763;28;20047;-76
2023/04/17 08:19:44;;;;;;;25.10;15.50;;;9.90;99.90;;;;;;5084721;28;20048;-77
2023/04/17 08:22:10;;;;;;;19.92;13.30;;;10.00;99.90;;;;;;5091521;28;20383;-76
2023/04/17 08:24:36;;;;;;;20.33;13.38;;;10.00;99.90;;;;;;5057918;28;20055;-76
2023/04/17 08:27:04;;;;;;;22.08;14.38;;;10.00;99.90;;;;;;5086373;28;20086;-75
2023/04/17 08:29:29;;;;;;;22.85;15.18;;;10.10;99.90;;;;;;5089999;28;20405;-76
2023/04/17 08:31:55;;;;;;;23.25;14.15;;;10.10;99.90;;;;;;5048730;28;20078;-77
2023/04/17 08:34:22;;;;;;;26.45;15.43;;;10.10;99.90;;;;;;5091467;28;20039;-77
2023/04/17 08:36:47;;;;;;;25.63;14.45;;;10.10;99.90;;;;;;5088156;28;20050;-76
2023/04/17 08:39:15;;;;;;;20.30;13.20;;;10.20;99.90;;;;;;5091415;28;20059;-76
2023/04/17 08:42:02;;;;;;;23.30;13.45;;;10.20;99.90;;;;;;5065211;28;20047;-75
2023/04/17 08:44:28;;;;;;;21.20;13.88;;;10.20;99.90;;;;;;5091206;28;20056;-75
2023/04/17 08:46:57;;;;;;;22.13;13.95;;;10.20;99.90;;;;;;5072459;28;20044;-76
2023/04/17 08:49:34;;;;;;;21.60;13.35;;;10.20;99.90;;;;;;5074627;28;20080;-75
2023/04/17 08:52:04;;;;;;;22.20;13.88;;;10.20;99.90;;;;;;5092675;28;20049;-75
2023/04/17 08:54:36;;;;;;;20.40;14.00;;;10.20;99.90;;;;;;5075780;28;20050;-75
2023/04/17 08:57:05;;;;;;;22.63;13.57;;;10.20;99.90;;;;;;5075434;28;20051;-75
2023/04/17 08:59:32;;;;;;;22.05;14.40;;;10.20;99.90;;;;;;5094064;28;20052;-77
2023/04/17 09:02:08;;;;;;;20.60;13.77;;;10.20;99.90;;;;;;5094901;28;20122;-77
2023/04/17 09:04:38;;;;;;;25.00;14.68;;;10.20;99.90;;;;;;5090376;28;20044;-77
2023/04/17 09:07:05;;;;;;;25.48;14.70;;;10.30;99.90;;;;;;5102768;28;20502;-77
2023/04/17 09:09:49;;;;;;;22.73;14.43;;;10.30;99.90;;;;;;5084364;28;20073;-77
2023/04/17 09:12:16;;;;;;;22.17;13.20;;;10.30;99.90;;;;;;5079286;28;20220;-77
2023/04/17 09:14:42;;;;;;;20.20;12.98;;;10.40;99.90;;;;;;5068467;28;20063;-76
2023/04/17 09:17:08;;;;;;;19.17;12.90;;;10.40;99.90;;;;;;5078570;28;20105;-77
2023/04/17 09:19:34;;;;;;;20.60;13.93;;;10.50;99.90;;;;;;5091015;28;20047;-76
2023/04/17 09:22:22;;;;;;;20.73;13.25;;;10.60;99.90;;;;;;5076384;28;20062;-76
2023/04/17 09:24:47;;;;;;;21.15;13.10;;;10.60;99.90;;;;;;5072503;28;20061;-76
2023/04/17 09:27:24;;;;;;;16.00;12.02;;;10.60;99.90;;;;;;5091408;28;20035;-77
2023/04/17 09:30:02;;;;;;;18.95;12.90;;;10.70;99.90;;;;;;5091824;27;20487;-76
2023/04/17 09:32:30;;;;;;;18.80;12.55;;;10.80;99.90;;;;;;5087064;28;20043;-76
2023/04/17 09:34:58;;;;;;;21.95;12.75;;;10.80;99.90;;;;;;5092881;28;20044;-77
2023/04/17 09:37:26;;;;;;;21.17;13.80;;;10.90;99.90;;;;;;5075897;28;20914;-77
2023/04/17 09:40:00;;;;;;;25.08;15.55;;;10.90;99.90;;;;;;5087989;28;20494;-77
2023/04/17 09:42:28;;;;;;;25.55;15.15;;;10.90;99.90;;;;;;5073264;28;20047;-76
2023/04/17 09:45:18;;;;;;;23.92;14.55;;;10.90;99.90;;;;;;5084848;28;20600;-77
2023/04/17 09:47:46;;;;;;;23.58;15.35;;;11.00;99.90;;;;;;5081474;28;20081;-76
2023/04/17 09:50:16;;;;;;;23.55;15.18;;;11.00;99.90;;;;;;5071057;28;20063;-77
2023/04/17 09:52:43;;;;;;;25.13;16.13;;;11.00;99.90;;;;;;5070272;28;20072;-76
2023/04/17 09:55:13;;;;;;;21.92;14.80;;;11.10;99.90;;;;;;5085171;28;20052;-77
2023/04/17 09:57:40;;;;;;;23.55;15.63;;;11.10;99.90;;;;;;5074987;28;20035;-77
2023/04/17 10:00:13;;;;;;;24.90;14.48;;;11.10;99.90;;;;;;5076058;28;20048;-76
2023/04/17 10:02:41;;;;;;;20.25;13.93;;;11.20;99.90;;;;;;5093562;28;20063;-76
2023/04/17 10:05:09;;;;;;;23.45;15.77;;;11.20;99.90;;;;;;5086385;28;20052;-75
2023/04/17 10:07:36;;;;;;;25.17;15.20;;;11.20;99.90;;;;;;5085338;28;20763;-75
2023/04/17 10:10:08;;;;;;;22.80;14.60;;;11.30;99.90;;;;;;5084063;28;20051;-75
2023/04/17 10:12:37;;;;;;;21.88;14.88;;;11.40;99.90;;;;;;5071698;28;20432;-75
2023/04/17 10:15:06;;;;;;;21.30;14.27;;;11.50;99.90;;;;;;5065235;28;20044;-75
2023/04/17 10:17:33;;;;;;;18.90;13.10;;;11.60;99.90;;;;;;5081810;27;20047;-75
2023/04/17 10:20:32;;;;;;;20.13;13.18;;;11.60;99.90;;;;;;5074028;28;20139;-75
2023/04/17 10:23:33;;;;;;;17.00;12.20;;;11.70;99.90;;;;;;5056141;28;20059;-75
2023/04/17 10:26:24;;;;;;;16.20;11.27;;;11.70;99.90;;;;;;5086696;28;20048;-76
2023/04/17 10:28:52;;;;;;;18.95;12.43;;;11.60;99.90;;;;;;5085204;28;20776;-76
2023/04/17 10:31:18;;;;;;;16.88;11.52;;;11.60;99.90;;;;;;5091563;28;20052;-76
2023/04/17 10:33:52;;;;;;;18.75;12.30;;;11.60;99.90;;;;;;5090548;28;20048;-76
2023/04/17 10:36:42;;;;;;;16.40;11.65;;;11.60;99.90;;;;;;5075093;28;20090;-75
2023/04/17 10:39:16;;;;;;;17.98;11.88;;;11.70;99.90;;;;;;5091784;28;20047;-76
2023/04/17 10:42:02;;;;;;;17.52;11.48;;;11.80;99.90;;;;;;5090319;28;20052;-76
2023/04/17 10:44:38;;;;;;;18.07;11.53;;;11.90;99.90;;;;;;5061399;28;20047;-76
2023/04/17 10:47:14;;;;;;;18.92;12.70;;;12.00;99.90;;;;;;5078932;28;20047;-76
2023/04/17 10:49:59;;;;;;;17.70;12.57;;;12.20;99.90;;;;;;5078363;28;20043;-77
2023/04/17 10:52:44;;;;;;;21.47;13.90;;;12.30;99.90;;;;;;5090125;28;20304;-77
2023/04/17 10:55:15;;;;;;;18.48;13.02;;;12.00;99.90;;;;;;5072868;28;20060;-75
2023/04/17 10:58:11;;;;;;;18.05;13.18;;;12.50;99.90;;;;;;5078953;28;20055;-76
2023/04/17 11:00:50;;;;;;;18.85;12.77;;;12.60;99.90;;;;;;5093525;28;20127;-76
2023/04/17 11:03:16;;;;;;;15.90;11.98;;;12.80;99.90;;;;;;5068192;28;20067;-76
2023/04/17 11:05:52;;;;;;;15.95;11.70;;;12.90;99.90;;;;;;5076627;28;20209;-78
2023/04/17 11:08:20;;;;;;;;;;;13.10;99.90;;;;;;5085150;28;20040;-76
2023/04/17 11:10:45;;;;;;;14.90;11.43;;;13.20;99.90;;;;;;5078090;28;19923;-76
2023/04/17 11:13:11;;;;;;;16.23;11.82;;;13.30;99.90;;;;;;5073297;28;20073;-75
2023/04/17 11:15:37;;;;;;;17.40;12.07;;;13.40;99.90;;;;;;5090218;28;20501;-75
2023/04/17 11:18:03;;;;;;;17.65;12.93;;;13.50;99.90;;;;;;5082050;28;20158;-76
2023/04/17 11:20:30;;;;;;;18.98;13.55;;;13.70;99.90;;;;;;5058045;28;20415;-77
2023/04/17 11:23:02;;;;;;;18.98;13.90;;;13.90;99.90;;;;;;5091244;28;20064;-75
2023/04/17 11:25:32;;;;;;;20.30;14.02;;;14.30;99.90;;;;;;5095526;28;20054;-77
2023/04/17 11:28:04;;;;;;;21.77;14.48;;;14.70;99.90;;;;;;5081037;28;20212;-77
2023/04/17 11:30:33;;;;;;;20.13;14.13;;;15.00;99.90;;;;;;5091084;28;20071;-78
2023/04/17 11:33:04;;;;;;;20.42;13.75;;;15.40;99.90;;;;;;5089970;28;20116;-75
2023/04/17 11:35:38;;;;;;;17.58;13.02;;;14.40;99.90;;;;;;5077216;28;20076;-76
2023/04/17 11:38:11;;;;;;;17.20;12.35;;;15.60;99.90;;;;;;5079822;28;20049;-76
2023/04/17 11:40:53;;;;;;;15.27;10.57;;;16.00;99.90;;;;;;5090465;28;20090;-77
2023/04/17 11:43:20;;;;;;;16.00;11.48;;;16.50;99.90;;;;;;5088519;28;20090;-76
2023/04/17 11:45:49;;;;;;;12.93;9.90;;;16.90;99.90;;;;;;5091553;28;20044;-77
2023/04/17 11:48:19;;;;;;;13.65;9.40;;;17.20;99.90;;;;;;5091521;28;20414;-78
2023/04/17 11:50:44;;;;;;;12.20;9.55;;;17.40;99.90;;;;;;5098419;28;20052;-78
2023/04/17 11:53:15;;;;;;;13.18;10.10;;;17.50;99.90;;;;;;5093342;28;20051;-77
2023/04/17 11:55:43;;;;;;;13.43;10.45;;;17.60;99.90;;;;;;5090546;28;20241;-77
2023/04/17 11:58:10;;;;;;;11.65;9.63;;;17.80;99.90;;;;;;5075153;28;20052;-76
2023/04/17 12:00:37;;;;;;;12.02;9.35;;;18.00;99.90;;;;;;5095090;28;20060;-76
2023/04/17 12:03:36;;;;;;;10.52;8.98;;;18.20;99.90;;;;;;5105014;28;20059;-76
2023/04/17 12:06:05;;;;;;;11.48;9.63;;;18.40;99.90;;;;;;5078944;28;20051;-76
2023/04/17 12:08:46;;;;;;;13.85;9.07;;;18.50;99.90;;;;;;5080506;28;20048;-77
2023/04/17 12:11:24;;;;;;;12.77;9.40;;;18.90;99.90;;;;;;5126031;27;20243;-78
2023/04/17 12:13:54;;;;;;;13.90;9.95;;;19.10;99.90;;;;;;5073621;28;20261;-78
2023/04/17 12:16:21;;;;;;;12.57;10.00;;;19.40;99.90;;;;;;5126343;27;20078;-78
2023/04/17 12:18:47;;;;;;;12.50;9.65;;;19.50;99.90;;;;;;5071562;28;21084;-77
2023/04/17 12:21:13;;;;;;;12.85;9.13;;;19.60;99.90;;;;;;5125815;27;20486;-78
2023/04/17 12:23:40;;;;;;;11.88;9.00;;;19.90;99.90;;;;;;5090792;28;20131;-78
2023/04/17 12:26:06;;;;;;;13.65;9.73;;;20.10;99.90;;;;;;5065654;28;20044;-77
2023/04/17 12:28:32;;;;;;;13.48;10.02;;;20.30;99.90;;;;;;5125892;27;20104;-76
2023/04/17 12:30:58;;;;;;;14.45;10.90;;;20.50;99.90;;;;;;5093979;28;20051;-76
2023/04/17 12:33:24;;;;;;;12.75;10.82;;;20.70;99.90;;;;;;5085768;28;20040;-77
2023/04/17 12:35:50;;;;;;;13.15;10.65;;;20.80;99.90;;;;;;5091159;28;20048;-76
2023/04/17 12:38:16;;;;;;;14.23;9.95;;;21.00;99.90;;;;;;5084897;28;20085;-76